createdAt,value
2019-02-12T00:02:24.826Z,6.67
2019-02-12T00:04:54.976Z,6.33
2019-02-12T00:07:25.374Z,6.57
2019-02-12T00:09:55.601Z,7.33
2019-02-12T00:12:26.212Z,6.27
2019-02-12T00:14:57.335Z,7.07
2019-02-12T00:17:27.506Z,6.33
2019-02-12T00:19:57.675Z,6.73
2019-02-12T00:22:27.879Z,6.90
2019-02-12T00:24:58.076Z,6.03
2019-02-12T00:27:28.222Z,6.30
2019-02-12T00:29:58.368Z,6.80
2019-02-12T00:32:28.529Z,8.10
2019-02-12T00:34:58.699Z,6.23
2019-02-12T00:37:28.877Z,6.20
2019-02-12T00:39:59.031Z,5.70
2019-02-12T00:42:29.227Z,6.73
2019-02-12T00:44:59.442Z,5.70
2019-02-12T00:47:29.710Z,6.73
2019-02-12T00:49:59.968Z,6.63
2019-02-12T00:52:30.120Z,6.60
2019-02-12T00:55:00.304Z,6.93
2019-02-12T00:57:30.529Z,6.60
2019-02-12T01:00:00.696Z,7.13
2019-02-12T01:02:30.836Z,7.33
2019-02-12T01:05:01.043Z,7.13
2019-02-12T01:07:32.701Z,7.20
2019-02-12T01:10:02.859Z,7.17
2019-02-12T01:12:33.013Z,6.30
2019-02-12T01:15:03.711Z,7.17
2019-02-12T01:17:34.959Z,6.83
2019-02-12T01:20:06.119Z,7.43
2019-02-12T01:22:36.298Z,7.53
2019-02-12T01:25:06.951Z,7.27
2019-02-12T01:27:37.161Z,6.73
2019-02-12T01:30:10.864Z,7.80
2019-02-12T01:32:41.092Z,7.30
2019-02-12T01:35:11.268Z,8.57
2019-02-12T01:37:41.449Z,7.10
2019-02-12T01:40:13.318Z,6.50
2019-02-12T01:42:43.591Z,6.67
2019-02-12T01:45:14.320Z,8.30
2019-02-12T01:47:44.502Z,8.77
2019-02-12T01:50:15.039Z,8.70
2019-02-12T01:52:45.255Z,8.50
2019-02-12T01:55:15.415Z,6.80
2019-02-12T01:57:46.870Z,6.33
2019-02-12T02:00:17.019Z,7.43
2019-02-12T02:02:47.242Z,7.53
2019-02-12T02:05:17.443Z,7.63
2019-02-12T02:07:47.596Z,8.50
2019-02-12T02:10:18.551Z,9.43
2019-02-12T02:12:48.684Z,9.00
2019-02-12T02:15:18.872Z,10.33
2019-02-12T02:17:49.011Z,8.93
2019-02-12T02:20:19.243Z,8.93
2019-02-12T02:22:49.514Z,9.80
2019-02-12T02:25:19.692Z,10.50
2019-02-12T02:27:49.827Z,10.53
2019-02-12T02:30:19.993Z,9.83
2019-02-12T02:32:50.143Z,9.90
2019-02-12T02:35:20.311Z,10.13
2019-02-12T02:37:50.434Z,11.50
2019-02-12T02:40:20.613Z,10.17
2019-02-12T02:42:50.779Z,12.20
2019-02-12T02:45:20.946Z,10.73
2019-02-12T02:47:51.140Z,12.13
2019-02-12T02:50:21.300Z,11.53
2019-02-12T02:52:51.488Z,12.10
2019-02-12T02:55:21.630Z,11.27
2019-02-12T02:57:51.815Z,12.20
2019-02-12T03:00:22.028Z,12.50
2019-02-12T03:02:52.212Z,12.50
2019-02-12T03:05:22.391Z,12.00
2019-02-12T03:07:53.458Z,13.03
2019-02-12T03:10:23.655Z,13.03
2019-02-12T03:12:53.831Z,15.10
2019-02-12T03:15:24.013Z,14.50
2019-02-12T03:17:54.203Z,14.03
2019-02-12T03:20:24.393Z,14.73
2019-02-12T03:22:54.608Z,16.47
2019-02-12T03:25:24.751Z,14.90
2019-02-12T03:27:54.935Z,15.77
2019-02-12T03:30:25.128Z,17.47
2019-02-12T03:32:55.374Z,16.50
2019-02-12T03:35:25.581Z,16.50
2019-02-12T03:37:55.765Z,16.47
2019-02-12T03:40:25.928Z,17.07
2019-02-12T03:42:56.125Z,16.27
2019-02-12T03:45:26.288Z,18.17
2019-02-12T03:47:56.473Z,17.70
2019-02-12T03:50:26.627Z,17.93
2019-02-12T03:52:56.794Z,18.53
2019-02-12T03:55:26.976Z,17.40
2019-02-12T03:57:57.132Z,18.87
2019-02-12T04:00:27.316Z,17.90
2019-02-12T04:03:06.863Z,18.10
2019-02-12T04:05:38.043Z,20.27
2019-02-12T04:08:09.451Z,19.53
2019-02-12T04:10:39.592Z,19.63
2019-02-12T04:13:09.761Z,20.03
2019-02-12T04:15:39.902Z,17.90
2019-02-12T04:18:10.109Z,19.90
2019-02-12T04:20:40.294Z,20.30
2019-02-12T04:23:10.462Z,21.97
2019-02-12T04:25:40.627Z,20.10
2019-02-12T04:28:10.772Z,19.30
2019-02-12T04:30:40.960Z,21.00
2019-02-12T04:33:11.157Z,19.37
2019-02-12T04:35:41.320Z,19.40
2019-02-12T04:38:11.487Z,20.47
2019-02-12T04:40:41.651Z,20.90
2019-02-12T04:43:11.813Z,20.80
2019-02-12T04:45:42.071Z,21.60
2019-02-12T04:48:12.224Z,21.17
2019-02-12T04:50:42.396Z,19.40
2019-02-12T04:53:12.569Z,22.20
2019-02-12T04:55:42.744Z,18.60
2019-02-12T04:58:12.896Z,20.47
2019-02-12T05:00:43.103Z,20.27
2019-02-12T05:03:13.323Z,19.80
2019-02-12T05:05:43.548Z,19.30
2019-02-12T05:08:13.787Z,19.77
2019-02-12T05:10:48.987Z,21.20
2019-02-12T05:13:19.193Z,20.30
2019-02-12T05:15:49.375Z,19.90
2019-02-12T05:18:19.563Z,19.93
2019-02-12T05:20:49.751Z,19.60
2019-02-12T05:23:19.987Z,19.60
2019-02-12T05:25:50.187Z,19.17
2019-02-12T05:28:20.387Z,19.03
2019-02-12T05:30:50.696Z,19.63
2019-02-12T05:33:20.936Z,20.40
2019-02-12T05:35:51.104Z,19.23
2019-02-12T05:38:21.346Z,20.40
2019-02-12T05:40:51.495Z,20.03
2019-02-12T05:43:21.687Z,19.10
2019-02-12T05:45:51.857Z,18.97
2019-02-12T05:48:22.056Z,18.57
2019-02-12T05:50:52.248Z,18.83
2019-02-12T05:53:22.408Z,19.33
2019-02-12T05:55:53.555Z,18.43
2019-02-12T05:58:23.808Z,17.27
2019-02-12T06:00:54.003Z,17.50
2019-02-12T06:03:24.147Z,17.13
2019-02-12T06:05:54.337Z,17.17
2019-02-12T06:08:24.496Z,17.30
2019-02-12T06:10:54.707Z,16.30
2019-02-12T06:13:25.848Z,16.07
2019-02-12T06:15:56.039Z,18.10
2019-02-12T06:18:26.216Z,18.63
2019-02-12T06:20:56.394Z,17.30
2019-02-12T06:23:26.679Z,16.30
2019-02-12T06:25:56.849Z,16.93
2019-02-12T06:28:27.026Z,16.30
2019-02-12T06:30:57.227Z,17.07
2019-02-12T06:33:27.407Z,15.80
2019-02-12T06:35:57.569Z,18.20
2019-02-12T06:38:27.701Z,17.57
2019-02-12T06:40:57.853Z,15.40
2019-02-12T06:43:28.019Z,18.03
2019-02-12T06:45:59.484Z,16.50
2019-02-12T06:48:29.688Z,17.50
2019-02-12T06:50:59.856Z,17.23
2019-02-12T06:53:30.046Z,19.20
2019-02-12T06:56:00.227Z,19.90
2019-02-12T06:58:30.702Z,21.07
2019-02-12T07:01:00.948Z,21.07
2019-02-12T07:04:00.525Z,21.87
2019-02-12T07:06:52.063Z,23.70
2019-02-12T07:09:42.295Z,22.53
2019-02-12T07:13:03.265Z,22.50
2019-02-12T07:15:44.136Z,23.60
2019-02-12T07:18:47.279Z,23.37
2019-02-12T07:22:07.847Z,25.47
2019-02-12T07:25:29.269Z,24.10
2019-02-12T07:28:41.009Z,23.07
2019-02-12T07:31:53.856Z,22.93
2019-02-12T07:34:44.735Z,23.47
2019-02-12T07:38:07.857Z,23.43
2019-02-12T07:41:04.342Z,25.10
2019-02-12T07:44:20.741Z,23.90
2019-02-12T07:47:35.967Z,24.03
2019-02-12T07:50:43.010Z,23.70
2019-02-12T07:53:31.191Z,25.40
2019-02-12T07:56:24.719Z,23.50
2019-02-12T07:59:36.378Z,25.00
2019-02-12T08:02:34.617Z,21.07
2019-02-12T08:05:41.559Z,23.50
2019-02-12T08:08:56.102Z,23.77
2019-02-12T08:11:57.591Z,25.03
2019-02-12T08:14:54.729Z,25.17
2019-02-12T08:17:53.028Z,22.77
2019-02-12T08:21:12.447Z,24.97
2019-02-12T08:24:38.441Z,24.20
2019-02-12T08:27:30.240Z,24.17
2019-02-12T08:30:25.243Z,24.00
2019-02-12T08:33:35.393Z,22.93
2019-02-12T08:36:27.651Z,22.93
2019-02-12T08:39:28.422Z,22.17
2019-02-12T08:42:48.103Z,23.23
2019-02-12T08:46:02.950Z,22.53
2019-02-12T08:49:19.007Z,23.20
2019-02-12T08:52:17.171Z,23.80
2019-02-12T08:55:43.203Z,21.83
2019-02-12T08:58:48.575Z,24.10
2019-02-12T09:01:56.155Z,24.93
2019-02-12T09:04:53.052Z,23.90
2019-02-12T09:07:34.908Z,25.50
2019-02-12T09:10:53.714Z,24.80
2019-02-12T09:14:00.328Z,23.93
2019-02-12T09:17:03.296Z,25.83
2019-02-12T09:19:45.140Z,26.20
2019-02-12T09:23:00.991Z,27.57
2019-02-12T09:25:55.564Z,30.40
2019-02-12T09:28:54.646Z,27.00
2019-02-12T09:32:08.956Z,25.97
2019-02-12T09:34:53.760Z,23.03
2019-02-12T09:38:06.625Z,26.77
2019-02-12T09:40:52.073Z,24.37
2019-02-12T09:43:51.236Z,27.47
2019-02-12T09:46:31.825Z,26.43
2019-02-12T09:49:32.648Z,24.97
2019-02-12T09:52:44.525Z,25.60
2019-02-12T09:55:30.314Z,23.30
2019-02-12T09:58:48.699Z,21.43
2019-02-12T10:02:02.997Z,22.40
2019-02-12T10:04:44.352Z,21.50
2019-02-12T10:07:36.679Z,20.57
2019-02-12T10:10:36.311Z,23.13
2019-02-12T10:13:28.595Z,21.93
2019-02-12T10:16:27.119Z,20.77
2019-02-12T10:19:34.672Z,21.50
2019-02-12T10:22:47.509Z,20.80
2019-02-12T10:25:31.109Z,18.90
2019-02-12T10:28:56.376Z,19.27
2019-02-12T10:31:44.493Z,19.57
2019-02-12T10:34:14.771Z,19.37
2019-02-12T10:36:44.999Z,19.60
2019-02-12T10:39:15.698Z,19.57
2019-02-12T10:41:45.858Z,16.90
2019-02-12T10:44:15.999Z,17.73
2019-02-12T10:46:46.132Z,16.33
2019-02-12T10:49:17.262Z,19.50
2019-02-12T10:51:47.416Z,16.70
2019-02-12T10:54:17.593Z,17.70
2019-02-12T10:56:47.766Z,17.13
2019-02-12T10:59:17.940Z,16.47
2019-02-12T11:01:48.087Z,15.80
2019-02-12T11:04:18.247Z,15.63
2019-02-12T11:06:48.415Z,15.73
2019-02-12T11:09:18.575Z,16.80
2019-02-12T11:11:48.716Z,14.90
2019-02-12T11:14:18.868Z,17.13
2019-02-12T11:16:49.080Z,15.57
2019-02-12T11:19:19.302Z,15.17
2019-02-12T11:21:49.456Z,15.70
2019-02-12T11:24:19.655Z,14.53
2019-02-12T11:26:49.837Z,15.27
2019-02-12T11:29:19.986Z,14.80
2019-02-12T11:31:50.141Z,14.70
2019-02-12T11:34:20.411Z,14.13
2019-02-12T11:36:50.600Z,13.73
2019-02-12T11:39:20.767Z,13.73
2019-02-12T11:41:50.923Z,14.57
2019-02-12T11:44:21.117Z,13.90
2019-02-12T11:46:51.282Z,13.47
2019-02-12T11:49:21.484Z,14.73
2019-02-12T11:51:51.635Z,14.90
2019-02-12T11:54:21.808Z,13.80
2019-02-12T11:56:51.932Z,13.13
2019-02-12T11:59:22.101Z,13.70
2019-02-12T12:01:52.260Z,13.00
2019-02-12T12:04:22.412Z,14.53
2019-02-12T12:06:52.595Z,10.90
2019-02-12T12:09:22.735Z,13.87
2019-02-12T12:11:52.922Z,13.10
2019-02-12T12:14:23.083Z,11.80
2019-02-12T12:16:56.146Z,11.63
2019-02-12T12:19:26.282Z,12.07
2019-02-12T12:21:56.543Z,11.20
2019-02-12T12:24:26.733Z,11.50
2019-02-12T12:26:56.951Z,11.47
2019-02-12T12:29:27.125Z,11.70
2019-02-12T12:31:57.269Z,12.37
2019-02-12T12:34:27.433Z,12.13
2019-02-12T12:36:57.609Z,10.60
2019-02-12T12:39:27.780Z,10.73
2019-02-12T12:41:57.931Z,10.67
2019-02-12T12:44:28.103Z,11.57
2019-02-12T12:46:58.293Z,10.63
2019-02-12T12:49:28.463Z,11.03
2019-02-12T12:51:59.231Z,10.40
2019-02-12T12:54:29.387Z,12.50
2019-02-12T12:56:59.586Z,10.67
2019-02-12T12:59:29.803Z,11.70
2019-02-12T13:02:00.040Z,11.53
2019-02-12T13:04:30.202Z,11.67
2019-02-12T13:07:00.366Z,12.50
2019-02-12T13:09:30.560Z,12.17
2019-02-12T13:12:00.715Z,12.73
2019-02-12T13:14:31.169Z,11.47
2019-02-12T13:17:01.367Z,12.63
2019-02-12T13:19:31.508Z,13.03
2019-02-12T13:22:01.731Z,12.37
2019-02-12T13:24:31.927Z,13.90
2019-02-12T13:27:02.089Z,13.23
2019-02-12T13:29:32.338Z,12.47
2019-02-12T13:32:02.547Z,12.50
2019-02-12T13:34:32.729Z,12.33
2019-02-12T13:37:02.881Z,12.13
2019-02-12T13:39:33.056Z,11.93
2019-02-12T13:42:03.317Z,12.40
2019-02-12T13:44:33.460Z,11.50
2019-02-12T13:47:03.614Z,11.30
2019-02-12T13:49:33.880Z,12.43
2019-02-12T13:52:04.091Z,11.93
2019-02-12T13:54:34.258Z,12.40
2019-02-12T13:57:04.528Z,11.47
2019-02-12T13:59:34.696Z,11.77
2019-02-12T14:02:04.870Z,11.23
2019-02-12T14:04:35.023Z,12.07
2019-02-12T14:07:05.223Z,12.83
2019-02-12T14:09:35.402Z,11.77
2019-02-12T14:12:05.588Z,11.50
2019-02-12T14:14:37.371Z,11.23
2019-02-12T14:17:07.506Z,11.27
2019-02-12T14:19:37.681Z,11.37
2019-02-12T14:22:07.864Z,11.40
2019-02-12T14:24:38.198Z,12.10
2019-02-12T14:27:08.368Z,12.27
2019-02-12T14:29:38.507Z,11.00
2019-02-12T14:32:08.711Z,11.37
2019-02-12T14:34:38.863Z,11.87
2019-02-12T14:37:09.044Z,12.43
2019-02-12T14:39:39.210Z,11.73
2019-02-12T14:42:09.397Z,12.33
2019-02-12T14:44:39.608Z,11.30
2019-02-12T14:47:09.788Z,12.03
2019-02-12T14:49:39.982Z,12.27
2019-02-12T14:52:10.128Z,10.80
2019-02-12T14:54:40.372Z,12.20
2019-02-12T14:57:15.078Z,11.70
2019-02-12T14:59:45.220Z,12.40
2019-02-12T15:02:15.391Z,11.80
2019-02-12T15:04:45.661Z,12.70
2019-02-12T15:07:15.812Z,12.87
2019-02-12T15:09:45.997Z,10.63
2019-02-12T15:12:16.144Z,11.17
2019-02-12T15:14:46.327Z,10.50
2019-02-12T15:17:16.484Z,11.57
2019-02-12T15:19:46.661Z,10.50
2019-02-12T15:22:16.813Z,11.43
2019-02-12T15:24:46.971Z,12.47
2019-02-12T15:27:17.112Z,11.30
2019-02-12T15:29:47.287Z,12.50
2019-02-12T15:32:17.440Z,11.63
2019-02-12T15:34:48.593Z,12.80
2019-02-12T15:37:18.751Z,13.30
2019-02-12T15:39:48.905Z,13.43
2019-02-12T15:42:19.032Z,13.40
2019-02-12T15:44:49.191Z,12.83
2019-02-12T15:47:19.496Z,12.73
2019-02-12T15:49:49.723Z,13.90
2019-02-12T15:52:19.916Z,13.07
2019-02-12T15:54:50.063Z,13.87
2019-02-12T15:57:20.263Z,13.77
2019-02-12T15:59:52.134Z,13.67
2019-02-12T16:02:22.303Z,12.13
2019-02-12T16:04:52.480Z,14.30
2019-02-12T16:07:24.341Z,14.77
2019-02-12T16:09:55.005Z,15.30
2019-02-12T16:12:28.301Z,14.73
2019-02-12T16:14:59.761Z,15.40
2019-02-12T16:17:30.183Z,15.00
2019-02-12T16:20:00.354Z,15.13
2019-02-12T16:22:30.478Z,14.37
2019-02-12T16:25:00.721Z,15.73
2019-02-12T16:27:30.928Z,15.50
2019-02-12T16:30:01.273Z,15.40
2019-02-12T16:32:31.769Z,14.27
2019-02-12T16:35:02.039Z,14.43
2019-02-12T16:37:32.228Z,14.17
2019-02-12T16:40:02.438Z,15.40
2019-02-12T16:42:32.702Z,14.63
2019-02-12T16:45:03.655Z,14.83
2019-02-12T16:47:33.956Z,14.20
2019-02-12T16:50:04.308Z,14.00
2019-02-12T16:52:34.531Z,13.43
2019-02-12T16:55:04.804Z,14.30
2019-02-12T16:57:35.988Z,13.70
2019-02-12T17:00:09.424Z,14.53
2019-02-12T17:02:40.799Z,16.10
2019-02-12T17:05:12.000Z,15.00
2019-02-12T17:07:43.139Z,14.47
2019-02-12T17:10:13.390Z,14.50
2019-02-12T17:12:43.613Z,14.27
2019-02-12T17:15:13.866Z,14.83
2019-02-12T17:17:44.126Z,14.93
2019-02-12T17:20:16.262Z,14.77
2019-02-12T17:22:46.534Z,13.30
2019-02-12T17:25:17.603Z,11.97
2019-02-12T17:27:48.137Z,13.50
2019-02-12T17:30:18.512Z,13.97
2019-02-12T17:32:48.803Z,13.20
2019-02-12T17:35:20.148Z,13.53
2019-02-12T17:37:50.342Z,14.17
2019-02-12T17:40:20.559Z,14.00
2019-02-12T17:42:50.736Z,13.63
2019-02-12T17:45:21.072Z,13.97
2019-02-12T17:47:51.330Z,13.97
2019-02-12T17:50:21.986Z,13.53
2019-02-12T17:52:52.285Z,14.30
2019-02-12T17:55:22.513Z,13.60
2019-02-12T17:57:52.765Z,13.30
2019-02-12T18:00:25.612Z,13.40
2019-02-12T18:02:55.835Z,13.27
2019-02-12T18:05:26.048Z,13.60
2019-02-12T18:07:56.235Z,13.60
2019-02-12T18:10:26.420Z,13.40
2019-02-12T18:12:56.622Z,13.07
2019-02-12T18:15:26.788Z,14.47
2019-02-12T18:17:57.022Z,15.07
2019-02-12T18:20:27.215Z,14.30
2019-02-12T18:22:57.415Z,15.60
2019-02-12T18:25:27.625Z,14.60
2019-02-12T18:27:57.807Z,14.60
2019-02-12T18:30:28.026Z,14.47
2019-02-12T18:32:58.233Z,14.37
2019-02-12T18:35:28.445Z,14.17
2019-02-12T18:37:58.744Z,15.50
2019-02-12T18:40:28.980Z,14.97
2019-02-12T18:42:59.196Z,16.27
2019-02-12T18:45:29.360Z,15.40
2019-02-12T18:47:59.615Z,15.40
2019-02-12T18:50:30.926Z,14.00
2019-02-12T18:53:01.093Z,16.13
2019-02-12T18:55:31.339Z,15.70
2019-02-12T18:58:01.526Z,15.43
2019-02-12T19:00:31.760Z,15.43
2019-02-12T19:03:01.983Z,15.17
2019-02-12T19:05:32.172Z,16.73
2019-02-12T19:08:02.369Z,16.87
2019-02-12T19:10:32.588Z,16.77
2019-02-12T19:13:02.796Z,16.57
2019-02-12T19:15:33.087Z,17.67
2019-02-12T19:18:11.757Z,16.83
2019-02-12T19:20:42.372Z,15.87
2019-02-12T19:23:12.846Z,17.37
2019-02-12T19:25:43.137Z,18.10
2019-02-12T19:28:13.376Z,17.87
2019-02-12T19:30:43.802Z,18.80
2019-02-12T19:33:14.109Z,18.47
2019-02-12T19:35:44.498Z,18.10
2019-02-12T19:38:14.684Z,19.00
2019-02-12T19:40:44.872Z,18.47
2019-02-12T19:43:15.536Z,17.90
2019-02-12T19:45:45.861Z,18.27
2019-02-12T19:48:16.056Z,17.80
2019-02-12T19:50:46.314Z,16.27
2019-02-12T19:53:16.556Z,19.33
2019-02-12T19:55:46.776Z,19.07
2019-02-12T19:58:17.003Z,19.80
2019-02-12T20:00:47.264Z,19.13
2019-02-12T20:03:17.440Z,19.77
2019-02-12T20:05:47.692Z,21.00
2019-02-12T20:08:17.916Z,19.97
2019-02-12T20:10:48.319Z,21.90
2019-02-12T20:13:18.609Z,22.53
2019-02-12T20:15:48.814Z,24.27
2019-02-12T20:18:19.028Z,18.50
2019-02-12T20:20:49.228Z,18.70
2019-02-12T20:23:19.479Z,18.70
2019-02-12T20:25:49.704Z,20.60
2019-02-12T20:28:20.001Z,20.87
2019-02-12T20:30:50.244Z,19.10
2019-02-12T20:33:20.467Z,21.07
2019-02-12T20:35:50.672Z,20.30
2019-02-12T20:38:20.875Z,25.23
2019-02-12T20:40:51.019Z,56.77
2019-02-12T20:43:21.612Z,25.33
2019-02-12T20:45:51.857Z,24.60
2019-02-12T20:48:22.045Z,24.87
2019-02-12T20:50:52.298Z,111.00
2019-02-12T20:53:22.521Z,26.70
2019-02-12T20:55:52.713Z,26.77
2019-02-12T20:58:22.900Z,20.77
2019-02-12T21:00:53.110Z,18.83
2019-02-12T21:03:23.327Z,33.20
2019-02-12T21:05:53.563Z,22.07
2019-02-12T21:08:23.731Z,21.00
2019-02-12T21:10:54.029Z,26.27
2019-02-12T21:13:24.191Z,22.80
2019-02-12T21:15:54.388Z,30.97
2019-02-12T21:18:24.606Z,21.37
2019-02-12T21:20:54.825Z,20.17
2019-02-12T21:23:25.940Z,19.60
2019-02-12T21:25:56.201Z,20.13
2019-02-12T21:28:26.422Z,18.97
2019-02-12T21:30:56.678Z,17.10
2019-02-12T21:33:26.948Z,19.23
2019-02-12T21:35:57.132Z,19.13
2019-02-12T21:38:27.381Z,19.03
2019-02-12T21:40:57.596Z,19.30
2019-02-12T21:43:28.854Z,22.00
2019-02-12T21:45:59.065Z,20.80
2019-02-12T21:48:32.307Z,20.97
2019-02-12T21:51:01.240Z,20.80
2019-02-12T21:53:31.476Z,18.83
2019-02-12T21:56:01.700Z,19.33
2019-02-12T21:58:31.879Z,18.60
2019-02-12T22:01:02.108Z,20.00
2019-02-12T22:03:32.366Z,19.40
2019-02-12T22:06:02.589Z,19.10
2019-02-12T22:08:32.812Z,20.10
2019-02-12T22:11:03.065Z,19.80
2019-02-12T22:13:33.363Z,19.90
2019-02-12T22:16:03.571Z,18.63
2019-02-12T22:18:33.739Z,19.60
2019-02-12T22:21:03.923Z,18.03
2019-02-12T22:23:34.093Z,19.70
2019-02-12T22:26:04.276Z,17.63
2019-02-12T22:28:34.449Z,19.07
2019-02-12T22:31:04.644Z,19.20
2019-02-12T22:33:34.839Z,20.03
2019-02-12T22:36:05.025Z,19.53
2019-02-12T22:38:35.236Z,19.40
2019-02-12T22:41:05.442Z,18.07
2019-02-12T22:43:35.620Z,18.23
2019-02-12T22:46:05.829Z,18.70
2019-02-12T22:48:36.012Z,17.77
2019-02-12T22:51:06.337Z,20.37
2019-02-12T22:53:36.507Z,19.10
2019-02-12T22:56:06.711Z,19.20
2019-02-12T22:58:36.866Z,18.03
2019-02-12T23:01:09.988Z,18.20
2019-02-12T23:03:40.124Z,17.70
2019-02-12T23:06:10.345Z,17.40
2019-02-12T23:08:40.505Z,17.77
2019-02-12T23:11:10.779Z,17.83
2019-02-12T23:13:40.915Z,17.67
2019-02-12T23:16:11.091Z,18.40
2019-02-12T23:18:41.252Z,17.60
2019-02-12T23:21:11.424Z,19.50
2019-02-12T23:23:41.597Z,19.30
2019-02-12T23:26:11.808Z,18.40
2019-02-12T23:28:42.941Z,19.33
2019-02-12T23:31:13.071Z,17.53
2019-02-12T23:33:44.207Z,18.27
2019-02-12T23:36:14.341Z,17.33
2019-02-12T23:38:44.524Z,18.20
2019-02-12T23:41:14.679Z,15.40
2019-02-12T23:43:44.835Z,16.60
2019-02-12T23:46:14.999Z,17.23
2019-02-12T23:48:45.164Z,17.20
2019-02-12T23:51:15.352Z,16.10
2019-02-12T23:53:45.489Z,16.77
2019-02-12T23:56:15.639Z,15.60
2019-02-12T23:58:45.792Z,15.67
